Terminal Aerodrome Forecast
Issued by NWS Sterling, VA

Current Version | Previous Version | Text Only | Print | Product List | Glossary Off
Versions: 1 2 3 4 5 6 7 8 9 10 11 12 13 14 15 16 17 18 19 20 21 22 23 24 25 26 27

000
FTUS41 KLWX 290527
TAFIAD
TAF
KIAD 290527Z 2906/3012 17007KT P6SM FEW250
     FM291000 VRB03KT 5SM BR BKN200
     FM291200 18004KT P6SM BKN150
     FM291900 17006KT 6SM SHRA OVC090
     FM292200 16005KT 5SM SHRA OVC045
     FM300300 VRB03KT 5SM SHRA OVC020
     FM300400 VRB03KT 3SM SHRA BR OVC020
     FM301000 VRB03KT 6SM BR OVC010=

USA.gov is the U.S. government's official web portal to all federal, state and local government web resources and services.